sensor_id;sensor_type;location;lat;lon;timestamp;pressure;altitude;pressure_sealevel;temperature;humidity
60244;BME280;46106;51.468;5.814;2023-03-01T00:01:53;102778.16;;;-0.53;100.00
60244;BME280;46106;51.468;5.814;2023-03-01T00:04:18;102776.34;;;-0.51;100.00
60244;BME280;46106;51.468;5.814;2023-03-01T00:06:44;102772.78;;;-0.58;100.00
60244;BME280;46106;51.468;5.814;2023-03-01T00:09:16;102773.69;;;-0.68;100.00
60244;BME280;46106;51.468;5.814;2023-03-01T00:11:42;102775.47;;;-0.64;100.00
60244;BME280;46106;51.468;5.814;2023-03-01T00:14:07;102773.69;;;-0.76;100.00
60244;BME280;46106;51.468;5.814;2023-03-01T00:16:38;102779.94;;;-0.71;100.00
60244;BME280;46106;51.468;5.814;2023-03-01T00:19:05;102772.81;;;-0.72;100.00
60244;BME280;46106;51.468;5.814;2023-03-01T00:21:30;102781.75;;;-0.68;100.00
60244;BME280;46106;51.468;5.814;2023-03-01T00:23:57;102777.25;;;-0.74;100.00
60244;BME280;46106;51.468;5.814;2023-03-01T00:26:24;102783.56;;;-0.84;100.00
60244;BME280;46106;51.468;5.814;2023-03-01T00:28:50;102772.78;;;-0.86;100.00
60244;BME280;46106;51.468;5.814;2023-03-01T00:31:19;102771.91;;;-0.82;100.00
60244;BME280;46106;51.468;5.814;2023-03-01T00:33:44;102768.31;;;-0.95;100.00
60244;BME280;46106;51.468;5.814;2023-03-01T00:36:13;102779.97;;;-0.88;100.00
60244;BME280;46106;51.468;5.814;2023-03-01T00:38:42;102773.72;;;-0.95;100.00
60244;BME280;46106;51.468;5.814;2023-03-01T00:41:11;102775.50;;;-1.03;100.00
60244;BME280;46106;51.468;5.814;2023-03-01T00:43:37;102763.84;;;-1.16;100.00
60244;BME280;46106;51.468;5.814;2023-03-01T00:46:08;102745.91;;;-1.17;100.00
60244;BME280;46106;51.468;5.814;2023-03-01T00:48:34;102753.97;;;-1.11;100.00
60244;BME280;46106;51.468;5.814;2023-03-01T00:51:11;102745.91;;;-1.11;100.00
60244;BME280;46106;51.468;5.814;2023-03-01T00:53:36;102751.31;;;-1.01;100.00
60244;BME280;46106;51.468;5.814;2023-03-01T00:56:03;102753.09;;;-0.91;100.00
60244;BME280;46106;51.468;5.814;2023-03-01T00:58:29;102754.00;;;-0.95;100.00
60244;BME280;46106;51.468;5.814;2023-03-01T01:00:55;102746.81;;;-0.93;100.00
60244;BME280;46106;51.468;5.814;2023-03-01T01:03:20;102743.22;;;-0.92;100.00
60244;BME280;46106;51.468;5.814;2023-03-01T01:05:46;102749.50;;;-1.04;100.00
60244;BME280;46106;51.468;5.814;2023-03-01T01:08:12;102739.63;;;-1.02;100.00
60244;BME280;46106;51.468;5.814;2023-03-01T01:10:37;102735.16;;;-1.14;100.00
60244;BME280;46106;51.468;5.814;2023-03-01T01:13:03;102741.47;;;-1.15;100.00
60244;BME280;46106;51.468;5.814;2023-03-01T01:15:33;102737.88;;;-1.23;100.00
60244;BME280;46106;51.468;5.814;2023-03-01T01:17:58;102742.31;;;-1.26;100.00
60244;BME280;46106;51.468;5.814;2023-03-01T01:20:27;102731.59;;;-1.30;100.00
60244;BME280;46106;51.468;5.814;2023-03-01T01:22:53;102722.59;;;-1.35;100.00
60244;BME280;46106;51.468;5.814;2023-03-01T01:25:18;102718.13;;;-1.28;100.00
60244;BME280;46106;51.468;5.814;2023-03-01T01:27:50;102712.78;;;-1.14;100.00
60244;BME280;46106;51.468;5.814;2023-03-01T01:30:16;102704.69;;;-1.23;100.00
60244;BME280;46106;51.468;5.814;2023-03-01T01:32:41;102702.91;;;-1.12;100.00
60244;BME280;46106;51.468;5.814;2023-03-01T01:35:07;102698.44;;;-1.27;100.00
60244;BME280;46106;51.468;5.814;2023-03-01T01:37:32;102706.50;;;-1.22;100.00
60244;BME280;46106;51.468;5.814;2023-03-01T01:39:58;102700.25;;;-1.21;100.00
60244;BME280;46106;51.468;5.814;2023-03-01T01:42:24;102696.66;;;-1.30;100.00
60244;BME280;46106;51.468;5.814;2023-03-01T01:47:56;102699.34;;;-1.30;100.00
60244;BME280;46106;51.468;5.814;2023-03-01T01:50:23;102694.84;;;-1.35;100.00
60244;BME280;46106;51.468;5.814;2023-03-01T01:52:49;102691.28;;;-1.30;100.00
60244;BME280;46106;51.468;5.814;2023-03-01T01:55:19;102686.81;;;-1.31;100.00
60244;BME280;46106;51.468;5.814;2023-03-01T01:57:52;102677.84;;;-1.31;100.00
60244;BME280;46106;51.468;5.814;2023-03-01T02:00:24;102680.50;;;-1.28;100.00
60244;BME280;46106;51.468;5.814;2023-03-01T02:02:55;102676.06;;;-1.37;100.00
60244;BME280;46106;51.468;5.814;2023-03-01T02:05:47;102678.75;;;-1.34;100.00
60244;BME280;46106;51.468;5.814;2023-03-01T02:08:19;102676.06;;;-1.37;100.00
60244;BME280;46106;51.468;5.814;2023-03-01T02:10:46;102672.47;;;-1.43;100.00
60244;BME280;46106;51.468;5.814;2023-03-01T02:13:12;102674.25;;;-1.47;100.00
60244;BME280;46106;51.468;5.814;2023-03-01T02:15:39;102676.03;;;-1.40;100.00
60244;BME280;46106;51.468;5.814;2023-03-01T02:18:06;102679.63;;;-1.35;100.00
60244;BME280;46106;51.468;5.814;2023-03-01T02:23:26;102680.53;;;-1.46;100.00
60244;BME280;46106;51.468;5.814;2023-03-01T02:30:48;102675.16;;;-1.63;100.00
60244;BME280;46106;51.468;5.814;2023-03-01T02:33:34;102676.00;;;-1.71;100.00
60244;BME280;46106;51.468;5.814;2023-03-01T02:36:11;102674.25;;;-1.59;100.00
60244;BME280;46106;51.468;5.814;2023-03-01T02:38:40;102668.88;;;-1.59;100.00
60244;BME280;46106;51.468;5.814;2023-03-01T02:41:07;102674.25;;;-1.61;100.00
60244;BME280;46106;51.468;5.814;2023-03-01T02:43:34;102674.25;;;-1.59;100.00
60244;BME280;46106;51.468;5.814;2023-03-01T02:46:06;102666.19;;;-1.59;100.00
60244;BME280;46106;51.468;5.814;2023-03-01T02:49:01;102668.88;;;-1.58;100.00
60244;BME280;46106;51.468;5.814;2023-03-01T02:57:03;102653.66;;;-1.54;100.00
60244;BME280;46106;51.468;5.814;2023-03-01T02:59:31;102657.25;;;-1.63;100.00
60244;BME280;46106;51.468;5.814;2023-03-01T03:02:05;102666.22;;;-1.64;100.00
60244;BME280;46106;51.468;5.814;2023-03-01T03:04:30;102663.50;;;-1.72;100.00
60244;BME280;46106;51.468;5.814;2023-03-01T03:06:57;102663.47;;;-1.81;100.00
60244;BME280;46106;51.468;5.814;2023-03-01T03:09:22;102669.72;;;-1.94;100.00
60244;BME280;46106;51.468;5.814;2023-03-01T03:11:48;102666.09;;;-2.12;100.00
60244;BME280;46106;51.468;5.814;2023-03-01T03:14:15;102655.34;;;-2.15;100.00
60244;BME280;46106;51.468;5.814;2023-03-01T03:16:43;102667.88;;;-2.14;100.00
60244;BME280;46106;51.468;5.814;2023-03-01T03:19:09;102663.41;;;-2.07;100.00
60244;BME280;46106;51.468;5.814;2023-03-01T03:21:34;102647.31;;;-2.21;100.00
60244;BME280;46106;51.468;5.814;2023-03-01T03:24:00;102664.31;;;-2.07;100.00
60244;BME280;46106;51.468;5.814;2023-03-01T03:26:26;102672.41;;;-1.94;100.00
60244;BME280;46106;51.468;5.814;2023-03-01T03:28:51;102663.47;;;-1.95;100.00
60244;BME280;46106;51.468;5.814;2023-03-01T03:31:17;102660.78;;;-1.92;100.00
60244;BME280;46106;51.468;5.814;2023-03-01T03:33:43;102662.59;;;-1.86;100.00
60244;BME280;46106;51.468;5.814;2023-03-01T03:36:08;102652.72;;;-1.89;100.00
60244;BME280;46106;51.468;5.814;2023-03-01T03:38:39;102663.47;;;-1.81;100.00
60244;BME280;46106;51.468;5.814;2023-03-01T03:41:07;102654.53;;;-1.85;100.00
60244;BME280;46106;51.468;5.814;2023-03-01T03:43:35;102675.13;;;-1.76;100.00
60244;BME280;46106;51.468;5.814;2023-03-01T03:46:02;102669.75;;;-1.74;100.00
60244;BME280;46106;51.468;5.814;2023-03-01T03:48:34;102666.16;;;-1.82;100.00
60244;BME280;46106;51.468;5.814;2023-03-01T03:51:00;102658.13;;;-1.78;100.00
60244;BME280;46106;51.468;5.814;2023-03-01T03:53:27;102650.06;;;-1.73;100.00
60244;BME280;46106;51.468;5.814;2023-03-01T03:55:54;102653.66;;;-1.73;100.00
60244;BME280;46106;51.468;5.814;2023-03-01T03:58:22;102645.63;;;-1.57;100.00
60244;BME280;46106;51.468;5.814;2023-03-01T04:00:49;102650.06;;;-1.76;100.00
60244;BME280;46106;51.468;5.814;2023-03-01T04:03:17;102652.75;;;-1.73;100.00
60244;BME280;46106;51.468;5.814;2023-03-01T04:05:44;102654.53;;;-1.71;100.00
60244;BME280;46106;51.468;5.814;2023-03-01T04:08:11;102640.22;;;-1.79;100.00
60244;BME280;46106;51.468;5.814;2023-03-01T04:10:42;102645.59;;;-1.76;100.00
60244;BME280;46106;51.468;5.814;2023-03-01T04:13:11;102642.00;;;-1.84;100.00
60244;BME280;46106;51.468;5.814;2023-03-01T04:15:37;102636.66;;;-1.90;100.00
60244;BME280;46106;51.468;5.814;2023-03-01T04:18:03;102625.00;;;-1.88;100.00
60244;BME280;46106;51.468;5.814;2023-03-01T04:20:30;102633.94;;;-1.89;100.00
60244;BME280;46106;51.468;5.814;2023-03-01T04:25:56;102634.84;;;-1.83;100.00
60244;BME280;46106;51.468;5.814;2023-03-01T04:28:24;102630.34;;;-1.89;100.00
60244;BME280;46106;51.468;5.814;2023-03-01T04:30:51;102622.31;;;-2.03;100.00
60244;BME280;46106;51.468;5.814;2023-03-01T04:33:16;102623.19;;;-1.89;100.00
60244;BME280;46106;51.468;5.814;2023-03-01T04:35:42;102608.88;;;-1.89;100.00
60244;BME280;46106;51.468;5.814;2023-03-01T04:38:08;102613.38;;;-1.88;100.00
60244;BME280;46106;51.468;5.814;2023-03-01T04:40:34;102609.78;;;-1.92;100.00
60244;BME280;46106;51.468;5.814;2023-03-01T04:43:00;102590.97;;;-1.89;100.00
60244;BME280;46106;51.468;5.814;2023-03-01T04:45:26;102599.06;;;-1.79;100.00
60244;BME280;46106;51.468;5.814;2023-03-01T04:47:51;102599.06;;;-1.93;100.00
60244;BME280;46106;51.468;5.814;2023-03-01T04:50:20;102598.13;;;-2.09;100.00
60244;BME280;46106;51.468;5.814;2023-03-01T04:52:47;102599.91;;;-2.13;100.00
60244;BME280;46106;51.468;5.814;2023-03-01T04:55:12;102609.78;;;-1.93;100.00
60244;BME280;46106;51.468;5.814;2023-03-01T04:57:38;102600.81;;;-2.14;100.00
60244;BME280;46106;51.468;5.814;2023-03-01T05:00:06;102601.66;;;-2.33;100.00
60244;BME280;46106;51.468;5.814;2023-03-01T05:02:46;102596.28;;;-2.30;100.00
60244;BME280;46106;51.468;5.814;2023-03-01T05:05:13;102594.47;;;-2.33;100.00
60244;BME280;46106;51.468;5.814;2023-03-01T05:07:39;102610.59;;;-2.31;100.00
60244;BME280;46106;51.468;5.814;2023-03-01T05:10:04;102610.59;;;-2.27;100.00
60244;BME280;46106;51.468;5.814;2023-03-01T05:12:31;102598.06;;;-2.35;100.00
60244;BME280;46106;51.468;5.814;2023-03-01T05:14:56;102614.16;;;-2.35;100.00
60244;BME280;46106;51.468;5.814;2023-03-01T05:17:23;102605.22;;;-2.37;100.00
60244;BME280;46106;51.468;5.814;2023-03-01T05:19:51;102605.19;;;-2.45;100.00
60244;BME280;46106;51.468;5.814;2023-03-01T05:22:17;102608.78;;;-2.38;100.00
60244;BME280;46106;51.468;5.814;2023-03-01T05:24:44;102597.13;;;-2.47;100.00
60244;BME280;46106;51.468;5.814;2023-03-01T05:27:09;102593.50;;;-2.61;100.00
60244;BME280;46106;51.468;5.814;2023-03-01T05:29:35;102590.00;;;-2.51;100.00
60244;BME280;46106;51.468;5.814;2023-03-01T05:32:01;102582.81;;;-2.52;100.00
60244;BME280;46106;51.468;5.814;2023-03-01T05:34:32;102574.78;;;-2.49;100.00
60244;BME280;46106;51.468;5.814;2023-03-01T05:36:59;102581.94;;;-2.54;100.00
60244;BME280;46106;51.468;5.814;2023-03-01T05:39:26;102582.81;;;-2.56;100.00
60244;BME280;46106;51.468;5.814;2023-03-01T05:41:54;102573.00;;;-2.48;100.00
60244;BME280;46106;51.468;5.814;2023-03-01T05:44:21;102564.09;;;-2.43;100.00
60244;BME280;46106;51.468;5.814;2023-03-01T05:46:46;102567.63;;;-2.47;100.00
60244;BME280;46106;51.468;5.814;2023-03-01T05:49:13;102571.16;;;-2.62;100.00
60244;BME280;46106;51.468;5.814;2023-03-01T05:51:39;102569.38;;;-2.70;100.00
60244;BME280;46106;51.468;5.814;2023-03-01T05:54:05;102563.06;;;-2.83;100.00
60244;BME280;46106;51.468;5.814;2023-03-01T05:56:33;102560.38;;;-2.85;100.00
60244;BME280;46106;51.468;5.814;2023-03-01T05:58:59;102557.63;;;-2.97;100.00
60244;BME280;46106;51.468;5.814;2023-03-01T06:01:25;102566.53;;;-3.03;100.00
60244;BME280;46106;51.468;5.814;2023-03-01T06:03:50;102549.53;;;-3.12;100.00
60244;BME280;46106;51.468;5.814;2023-03-01T06:06:16;102559.38;;;-3.02;100.00
60244;BME280;46106;51.468;5.814;2023-03-01T06:08:42;102569.16;;;-3.12;100.00
60244;BME280;46106;51.468;5.814;2023-03-01T06:11:07;102571.88;;;-3.06;100.00
60244;BME280;46106;51.468;5.814;2023-03-01T06:13:32;102570.97;;;-3.09;100.00
60244;BME280;46106;51.468;5.814;2023-03-01T06:15:58;102579.84;;;-3.17;100.00
60244;BME280;46106;51.468;5.814;2023-03-01T06:18:23;102568.28;;;-3.11;100.00
60244;BME280;46106;51.468;5.814;2023-03-01T06:20:55;102571.94;;;-2.98;100.00
60244;BME280;46106;51.468;5.814;2023-03-01T06:23:22;102581.75;;;-2.92;100.00
60244;BME280;46106;51.468;5.814;2023-03-01T06:25:47;102575.56;;;-2.87;100.00
60244;BME280;46106;51.468;5.814;2023-03-01T06:28:13;102584.50;;;-2.83;100.00
60244;BME280;46106;51.468;5.814;2023-03-01T06:30:38;102577.38;;;-2.77;100.00
60244;BME280;46106;51.468;5.814;2023-03-01T06:33:04;102580.09;;;-2.69;100.00
60244;BME280;46106;51.468;5.814;2023-03-01T06:35:30;102574.75;;;-2.69;100.00
60244;BME280;46106;51.468;5.814;2023-03-01T06:37:57;102568.47;;;-2.69;100.00
60244;BME280;46106;51.468;5.814;2023-03-01T06:40:23;102569.34;;;-2.67;100.00
60244;BME280;46106;51.468;5.814;2023-03-01T06:42:49;102579.22;;;-2.63;100.00
60244;BME280;46106;51.468;5.814;2023-03-01T06:45:15;102576.53;;;-2.65;100.00
60244;BME280;46106;51.468;5.814;2023-03-01T06:47:41;102575.66;;;-2.62;100.00
60244;BME280;46106;51.468;5.814;2023-03-01T06:50:07;102575.66;;;-2.62;100.00
60244;BME280;46106;51.468;5.814;2023-03-01T06:52:32;102565.81;;;-2.60;100.00
60244;BME280;46106;51.468;5.814;2023-03-01T06:54:58;102567.59;;;-2.64;100.00
60244;BME280;46106;51.468;5.814;2023-03-01T06:57:24;102539.81;;;-2.83;100.00
60244;BME280;46106;51.468;5.814;2023-03-01T06:59:49;102559.56;;;-2.62;100.00
60244;BME280;46106;51.468;5.814;2023-03-01T07:02:15;102563.13;;;-2.60;100.00
60244;BME280;46106;51.468;5.814;2023-03-01T07:04:41;102564.09;;;-2.44;100.00
60244;BME280;46106;51.468;5.814;2023-03-01T07:07:07;102560.53;;;-2.31;100.00
60244;BME280;46106;51.468;5.814;2023-03-01T07:09:33;102563.22;;;-2.23;100.00
60244;BME280;46106;51.468;5.814;2023-03-01T07:11:58;102577.56;;;-2.06;100.00
60244;BME280;46106;51.468;5.814;2023-03-01T07:14:24;102572.19;;;-1.99;100.00
60244;BME280;46106;51.468;5.814;2023-03-01T07:16:51;102568.59;;;-1.95;100.00
60244;BME280;46106;51.468;5.814;2023-03-01T07:19:19;102572.19;;;-1.86;100.00
60244;BME280;46106;51.468;5.814;2023-03-01T07:21:44;102573.09;;;-1.79;100.00
60244;BME280;46106;51.468;5.814;2023-03-01T07:24:10;102575.78;;;-1.63;100.00
60244;BME280;46106;51.468;5.814;2023-03-01T07:26:36;102579.38;;;-1.51;100.00
60244;BME280;46106;51.468;5.814;2023-03-01T07:29:04;102570.38;;;-1.40;100.00
60244;BME280;46106;51.468;5.814;2023-03-01T07:31:30;102575.72;;;-1.26;100.00
60244;BME280;46106;51.468;5.814;2023-03-01T07:33:56;102584.66;;;-1.06;100.00
60244;BME280;46106;51.468;5.814;2023-03-01T07:36:21;102580.13;;;-0.91;100.00
60244;BME280;46106;51.468;5.814;2023-03-01T07:38:47;102580.94;;;-0.74;100.00
60244;BME280;46106;51.468;5.814;2023-03-01T07:41:12;102582.63;;;-0.51;100.00
60244;BME280;46106;51.468;5.814;2023-03-01T07:43:38;102580.84;;;-0.51;100.00
60244;BME280;46106;51.468;5.814;2023-03-01T07:46:04;102590.56;;;-0.27;100.00
60244;BME280;46106;51.468;5.814;2023-03-01T07:48:30;102584.19;;;-0.12;100.00
60244;BME280;46106;51.468;5.814;2023-03-01T07:50:59;102584.97;;;0.07;100.00
60244;BME280;46106;51.468;5.814;2023-03-01T07:53:25;102592.94;;;0.20;100.00
60244;BME280;46106;51.468;5.814;2023-03-01T07:56:03;102590.22;;;0.24;100.00
60244;BME280;46106;51.468;5.814;2023-03-01T07:58:29;102582.97;;;0.32;100.00
60244;BME280;46106;51.468;5.814;2023-03-01T08:00:54;102578.06;;;0.78;100.00
60244;BME280;46106;51.468;5.814;2023-03-01T08:03:20;102579.81;;;0.82;100.00
60244;BME280;46106;51.468;5.814;2023-03-01T08:05:45;102580.41;;;1.12;100.00
60244;BME280;46106;51.468;5.814;2023-03-01T08:08:11;102584.66;;;1.29;100.00
60244;BME280;46106;51.468;5.814;2023-03-01T08:10:36;102587.56;;;1.13;100.00
60244;BME280;46106;51.468;5.814;2023-03-01T08:13:02;102582.88;;;1.30;100.00
60244;BME280;46106;51.468;5.814;2023-03-01T08:15:27;102567.38;;;1.46;100.00
60244;BME280;46106;51.468;5.814;2023-03-01T08:17:53;102575.50;;;1.44;100.00
60244;BME280;46106;51.468;5.814;2023-03-01T08:20:19;102575.28;;;1.58;100.00
60244;BME280;46106;51.468;5.814;2023-03-01T08:22:46;102578.66;;;1.76;100.00
60244;BME280;46106;51.468;5.814;2023-03-01T08:25:11;102577.63;;;1.84;100.00
60244;BME280;46106;51.468;5.814;2023-03-01T08:27:36;102565.69;;;1.99;100.00
60244;BME280;46106;51.468;5.814;2023-03-01T08:30:02;102567.50;;;1.99;100.00
60244;BME280;46106;51.468;5.814;2023-03-01T08:32:28;102563.28;;;2.37;100.00
60244;BME280;46106;51.468;5.814;2023-03-01T08:34:53;102558.22;;;2.68;100.00
60244;BME280;46106;51.468;5.814;2023-03-01T08:37:19;102553.28;;;2.92;100.00
60244;BME280;46106;51.468;5.814;2023-03-01T08:39:44;102560.88;;;2.71;100.00
60244;BME280;46106;51.468;5.814;2023-03-01T08:42:10;102557.06;;;2.82;100.00
60244;BME280;46106;51.468;5.814;2023-03-01T08:44:35;102558.84;;;3.28;100.00
60244;BME280;46106;51.468;5.814;2023-03-01T08:47:01;102558.84;;;3.28;100.00
60244;BME280;46106;51.468;5.814;2023-03-01T08:49:30;102554.91;;;3.44;100.00
60244;BME280;46106;51.468;5.814;2023-03-01T08:51:57;102544.47;;;3.66;100.00
60244;BME280;46106;51.468;5.814;2023-03-01T08:54:23;102544.06;;;4.21;100.00
60244;BME280;46106;51.468;5.814;2023-03-01T08:56:49;102547.84;;;3.76;100.00
60244;BME280;46106;51.468;5.814;2023-03-01T08:59:15;102535.16;;;4.16;100.00
60244;BME280;46106;51.468;5.814;2023-03-01T09:01:41;102547.25;;;4.38;96.06
60244;BME280;46106;51.468;5.814;2023-03-01T09:04:11;102547.47;;;4.64;95.45
60244;BME280;46106;51.468;5.814;2023-03-01T09:06:37;102542.28;;;5.20;87.02
60244;BME280;46106;51.468;5.814;2023-03-01T09:09:04;102535.75;;;4.63;87.71
60244;BME280;46106;51.468;5.814;2023-03-01T09:11:30;102533.75;;;4.35;89.87
60244;BME280;46106;51.468;5.814;2023-03-01T09:13:56;102538.19;;;4.74;87.09
60244;BME280;46106;51.468;5.814;2023-03-01T09:16:22;102541.00;;;5.02;82.45
60244;BME280;46106;51.468;5.814;2023-03-01T09:18:52;102533.09;;;5.24;84.76
60244;BME280;46106;51.468;5.814;2023-03-01T09:21:20;102537.44;;;5.61;77.54
60244;BME280;46106;51.468;5.814;2023-03-01T09:23:47;102535.06;;;5.79;75.39
60244;BME280;46106;51.468;5.814;2023-03-01T09:26:19;102527.31;;;5.37;75.85
60244;BME280;46106;51.468;5.814;2023-03-01T09:28:46;102527.88;;;5.48;74.35
60244;BME280;46106;51.468;5.814;2023-03-01T09:31:13;102521.59;;;5.46;75.76
60244;BME280;46106;51.468;5.814;2023-03-01T09:33:40;102510.97;;;5.38;75.32
60244;BME280;46106;51.468;5.814;2023-03-01T09:36:08;102522.88;;;5.62;74.92
60244;BME280;46106;51.468;5.814;2023-03-01T09:38:35;102518.63;;;6.12;72.32
60244;BME280;46106;51.468;5.814;2023-03-01T09:41:09;102520.44;;;5.83;71.18
60244;BME280;46106;51.468;5.814;2023-03-01T09:44:00;102508.09;;;6.01;70.19
60244;BME280;46106;51.468;5.814;2023-03-01T09:46:32;102494.72;;;6.48;69.71
60244;BME280;46106;51.468;5.814;2023-03-01T09:49:29;102503.09;;;6.42;70.29
60244;BME280;46106;51.468;5.814;2023-03-01T09:54:55;102500.00;;;5.99;65.26
60244;BME280;46106;51.468;5.814;2023-03-01T10:00:42;102498.09;;;6.30;64.69
60244;BME280;46106;51.468;5.814;2023-03-01T10:03:16;102489.81;;;6.58;62.62
60244;BME280;46106;51.468;5.814;2023-03-01T10:08:32;102483.63;;;6.54;65.38
60244;BME280;46106;51.468;5.814;2023-03-01T10:11:02;102467.97;;;6.85;64.51
60244;BME280;46106;51.468;5.814;2023-03-01T10:19:17;102479.47;;;6.42;61.21
60244;BME280;46106;51.468;5.814;2023-03-01T10:21:46;102471.91;;;6.25;60.21
60244;BME280;46106;51.468;5.814;2023-03-01T10:24:14;102463.81;;;5.97;62.92
60244;BME280;46106;51.468;5.814;2023-03-01T10:29:10;102447.50;;;6.74;61.04
60244;BME280;46106;51.468;5.814;2023-03-01T10:31:41;102439.13;;;6.30;61.10
60244;BME280;46106;51.468;5.814;2023-03-01T10:34:30;102444.50;;;6.32;60.97
60244;BME280;46106;51.468;5.814;2023-03-01T10:39:34;102437.13;;;6.35;60.23
60244;BME280;46106;51.468;5.814;2023-03-01T10:42:09;102433.13;;;6.94;61.32
60244;BME280;46106;51.468;5.814;2023-03-01T10:44:46;102441.19;;;6.97;59.67
60244;BME280;46106;51.468;5.814;2023-03-01T10:47:22;102430.81;;;7.07;58.81
60244;BME280;46106;51.468;5.814;2023-03-01T10:50:04;102445.97;;;6.91;60.30
60244;BME280;46106;51.468;5.814;2023-03-01T10:52:31;102439.75;;;6.87;59.63
60244;BME280;46106;51.468;5.814;2023-03-01T10:54:59;102429.25;;;6.76;57.81
60244;BME280;46106;51.468;5.814;2023-03-01T10:57:37;102429.72;;;6.14;58.75
60244;BME280;46106;51.468;5.814;2023-03-01T11:00:23;102430.63;;;6.88;60.01
60244;BME280;46106;51.468;5.814;2023-03-01T11:03:13;102407.16;;;6.86;58.88
60244;BME280;46106;51.468;5.814;2023-03-01T11:11:34;102445.28;;;6.10;59.90
60244;BME280;46106;51.468;5.814;2023-03-01T11:14:05;102444.50;;;6.57;57.24
60244;BME280;46106;51.468;5.814;2023-03-01T11:16:34;102447.63;;;6.46;58.56
60244;BME280;46106;51.468;5.814;2023-03-01T11:19:20;102431.28;;;6.71;58.94
60244;BME280;46106;51.468;5.814;2023-03-01T11:22:22;102422.13;;;6.49;58.26
60244;BME280;46106;51.468;5.814;2023-03-01T11:24:49;102436.34;;;6.32;58.05
60244;BME280;46106;51.468;5.814;2023-03-01T11:27:24;102437.38;;;6.28;58.84
60244;BME280;46106;51.468;5.814;2023-03-01T11:30:05;102426.38;;;6.81;59.27
60244;BME280;46106;51.468;5.814;2023-03-01T11:32:41;102419.06;;;6.58;59.08
60244;BME280;46106;51.468;5.814;2023-03-01T11:35:23;102419.00;;;6.34;61.11
60244;BME280;46106;51.468;5.814;2023-03-01T11:38:00;102417.44;;;7.01;58.87
60244;BME280;46106;51.468;5.814;2023-03-01T11:43:33;102424.56;;;6.31;57.34
60244;BME280;46106;51.468;5.814;2023-03-01T12:06:42;102393.34;;;6.67;59.02
60244;BME280;46106;51.468;5.814;2023-03-01T12:08:52;102397.59;;;6.50;60.45
60244;BME280;46106;51.468;5.814;2023-03-01T12:11:50;102396.25;;;6.37;60.17
60244;BME280;46106;51.468;5.814;2023-03-01T12:17:45;102377.22;;;6.37;58.74
60244;BME280;46106;51.468;5.814;2023-03-01T12:20:54;102384.84;;;6.51;59.52
60244;BME280;46106;51.468;5.814;2023-03-01T12:50:57;102347.25;;;6.62;58.57
60244;BME280;46106;51.468;5.814;2023-03-01T12:53:26;102326.91;;;6.72;60.94
60244;BME280;46106;51.468;5.814;2023-03-01T12:55:58;102330.25;;;6.55;59.93
60244;BME280;46106;51.468;5.814;2023-03-01T12:58:34;102318.16;;;6.64;59.19
60244;BME280;46106;51.468;5.814;2023-03-01T13:06:34;102307.09;;;6.45;59.50
60244;BME280;46106;51.468;5.814;2023-03-01T13:11:56;102304.84;;;6.56;60.35
60244;BME280;46106;51.468;5.814;2023-03-01T13:16:52;102293.41;;;6.70;60.79
60244;BME280;46106;51.468;5.814;2023-03-01T13:19:20;102289.03;;;6.66;60.95
60244;BME280;46106;51.468;5.814;2023-03-01T13:21:47;102301.03;;;6.60;60.56
60244;BME280;46106;51.468;5.814;2023-03-01T13:24:42;102303.00;;;6.57;59.76
60244;BME280;46106;51.468;5.814;2023-03-01T13:29:55;102292.00;;;6.60;57.27
60244;BME280;46106;51.468;5.814;2023-03-01T13:32:35;102283.88;;;6.58;56.69
60244;BME280;46106;51.468;5.814;2023-03-01T13:37:43;102282.31;;;6.53;58.84
60244;BME280;46106;51.468;5.814;2023-03-01T13:42:45;102259.34;;;6.60;59.88
60244;BME280;46106;51.468;5.814;2023-03-01T13:45:34;102252.16;;;6.57;60.53
60244;BME280;46106;51.468;5.814;2023-03-01T13:48:28;102248.00;;;6.49;59.88
60244;BME280;46106;51.468;5.814;2023-03-01T13:50:59;102237.09;;;6.49;59.31
60244;BME280;46106;51.468;5.814;2023-03-01T13:53:30;102233.06;;;6.59;60.58
60244;BME280;46106;51.468;5.814;2023-03-01T13:56:12;102229.91;;;6.70;60.51
60244;BME280;46106;51.468;5.814;2023-03-01T13:58:52;102227.69;;;6.57;57.77
60244;BME280;46106;51.468;5.814;2023-03-01T14:03:53;102227.66;;;6.81;59.13
60244;BME280;46106;51.468;5.814;2023-03-01T14:06:27;102226.38;;;6.90;59.00
60244;BME280;46106;51.468;5.814;2023-03-01T14:14:55;102210.78;;;6.49;56.17
60244;BME280;46106;51.468;5.814;2023-03-01T14:17:33;102225.28;;;6.72;56.17
60244;BME280;46106;51.468;5.814;2023-03-01T14:20:28;102217.06;;;6.51;56.49
60244;BME280;46106;51.468;5.814;2023-03-01T14:22:57;102215.47;;;6.46;56.26
60244;BME280;46106;51.468;5.814;2023-03-01T14:30:42;102212.97;;;6.63;58.41
60244;BME280;46106;51.468;5.814;2023-03-01T14:35:53;102209.16;;;6.67;58.64
60244;BME280;46106;51.468;5.814;2023-03-01T14:38:29;102207.84;;;6.77;59.70
60244;BME280;46106;51.468;5.814;2023-03-01T14:40:59;102198.53;;;6.61;58.35
60244;BME280;46106;51.468;5.814;2023-03-01T14:43:27;102197.44;;;6.65;58.23
60244;BME280;46106;51.468;5.814;2023-03-01T14:45:54;102187.00;;;6.76;59.63
60244;BME280;46106;51.468;5.814;2023-03-01T14:48:20;102191.06;;;6.66;56.21
60244;BME280;46106;51.468;5.814;2023-03-01T14:50:46;102191.66;;;6.51;58.70
60244;BME280;46106;51.468;5.814;2023-03-01T14:53:18;102193.22;;;6.58;58.81
60244;BME280;46106;51.468;5.814;2023-03-01T14:55:55;102182.63;;;6.50;59.88
60244;BME280;46106;51.468;5.814;2023-03-01T14:58:24;102195.81;;;6.61;60.64
60244;BME280;46106;51.468;5.814;2023-03-01T15:00:53;102178.28;;;6.46;59.70
60244;BME280;46106;51.468;5.814;2023-03-01T15:03:43;102187.78;;;6.58;59.23
60244;BME280;46106;51.468;5.814;2023-03-01T15:06:10;102173.78;;;6.45;60.77
60244;BME280;46106;51.468;5.814;2023-03-01T15:08:42;102169.09;;;6.49;60.15
60244;BME280;46106;51.468;5.814;2023-03-01T15:11:28;102164.59;;;6.48;61.37
60244;BME280;46106;51.468;5.814;2023-03-01T15:13:53;102164.91;;;6.40;60.99